This is the latest recevied weather packets stored in our database for station/object KN4CCE-13. If no packets are shown the sender has not sent any weather packets the latest 10 day(s).
| Time | Temp. | Humidity | Pressure | Rain* | Wind** | Luminosity | Snow |
|---|---|---|---|---|---|---|---|
| 1777267820 | 11.67° C | 79% | 1021.5 hPa | 0 mm | - | 0 W/m² | - |
| 1777266918 | 11.67° C | 79% | 1021.5 hPa | 0 mm | - | 0 W/m² | - |
| 1777259735 | 11.67° C | 78% | 1021 hPa | 0 mm | - | 0 W/m² | - |
| 1777256130 | 12.22° C | 76% | 1020.6 hPa | 0 mm | - | 0 W/m² | - |
| 1777250732 | 13.33° C | 76% | 1019 hPa | 0 mm | - | 0 W/m² | - |
| 1777248020 | 14.44° C | 76% | 1018.3 hPa | 0 mm | - | 0 W/m² | - |
| 1777246225 | 14.44° C | 74% | 1017.8 hPa | 0 mm | - | 7 W/m² | - |
| 1777245314 | 15° C | 75% | 1017.6 hPa | 0 mm | - | 9 W/m² | - |
| 1777244421 | 15.56° C | 73% | 1017.4 hPa | 0 mm | - | 25 W/m² | - |
| 1777242624 | 16.11° C | 72% | 1017.2 hPa | 0 mm | - | 40 W/m² | - |
| 1777241722 | 16.11° C | 71% | 1017.1 hPa | 0 mm | - | 95 W/m² | - |
| 1777239920 | 16.67° C | 73% | 1016.7 hPa | 0 mm | - | 135 W/m² | - |
| 1777238130 | 16.67° C | 70% | 1016.3 hPa | 0 mm | - | 206 W/m² | - |
| 1777232712 | 17.22° C | 72% | 1015.9 hPa | 0 mm | - | 788 W/m² | - |
| 1777230023 | 16.67° C | 76% | 1016.3 hPa | 0 mm | - | 594 W/m² | - |
| 1777219206 | 14.44° C | 90% | 1015.8 hPa | 0 mm | - | 353 W/m² | - |
| 1777212015 | 13.89° C | 97% | 1014.4 hPa | 0.25 mm | - | 83 W/m² | - |
| 1777207508 | 15° C | 97% | 1013.8 hPa | 0.25 mm | - | 18 W/m² | - |
| 1777204809 | 16.67° C | 98% | 1012.8 hPa | 0.51 mm | - | 42 W/m² | - |
| 1777202110 | 16.67° C | 98% | 1012 hPa | 0.25 mm | - | 5 W/m² | - |
| 1777195816 | 16.67° C | 97% | 1010.8 hPa | 0 mm | - | 0 W/m² | - |
| 1777188627 | 16.67° C | 97% | 1009.9 hPa | 0 mm | - | 0 W/m² | - |
| 1777182306 | 17.22° C | 97% | 1010.6 hPa | 0 mm | - | 0 W/m² | - |
| 1777179610 | 17.22° C | 97% | 1010.9 hPa | 0.76 mm | - | 0 W/m² | - |
| 1777168823 | 17.78° C | 96% | 1010.7 hPa | 0.51 mm | - | 0 W/m² | - |
* Rain latest hour (hover to see other rain measurements)
** Current wind speed in m/s (hover to see current wind gust speed)